createdAt,value
2019-02-14T00:01:24.308Z,99673.72
2019-02-14T00:03:57.888Z,99677.06
2019-02-14T00:06:32.270Z,99681.00
2019-02-14T00:09:06.290Z,99675.70
2019-02-14T00:11:39.623Z,99675.28
2019-02-14T00:14:13.094Z,99675.28
2019-02-14T00:16:44.876Z,99681.17
2019-02-14T00:19:18.286Z,99683.09
2019-02-14T00:21:51.415Z,99675.25
2019-02-14T00:24:24.828Z,99675.25
2019-02-14T00:26:57.956Z,99674.47
2019-02-14T00:29:29.706Z,99684.12
2019-02-14T00:32:02.957Z,99676.48
2019-02-14T00:34:36.281Z,99670.81
2019-02-14T00:37:09.678Z,99674.33
2019-02-14T00:39:42.945Z,99674.33
2019-02-14T00:42:16.280Z,99674.55
2019-02-14T00:44:49.641Z,99661.39
2019-02-14T00:47:23.287Z,99661.39
2019-02-14T00:49:56.356Z,99658.45
2019-02-14T00:52:29.716Z,99658.45
2019-02-14T00:55:03.093Z,99663.73
2019-02-14T00:57:36.296Z,99666.10
2019-02-14T01:00:09.725Z,99668.84
2019-02-14T01:02:43.285Z,99668.84
2019-02-14T01:05:16.560Z,99666.28
2019-02-14T01:07:50.084Z,99660.98
2019-02-14T01:10:21.867Z,99665.91
2019-02-14T01:12:55.744Z,99670.23
2019-02-14T01:15:29.566Z,99680.24
2019-02-14T01:18:02.956Z,99684.73
2019-02-14T01:20:36.111Z,99689.07
2019-02-14T01:23:09.291Z,99692.59
2019-02-14T01:25:42.352Z,99697.13
2019-02-14T01:28:15.670Z,99697.13
2019-02-14T01:30:48.989Z,99694.36
2019-02-14T01:33:21.653Z,99702.83
2019-02-14T01:35:55.077Z,99701.42
2019-02-14T01:38:26.909Z,99698.09
2019-02-14T01:41:00.129Z,99700.66
2019-02-14T01:43:33.287Z,99694.75
2019-02-14T01:46:06.664Z,99699.27
2019-02-14T01:48:39.952Z,99699.27
2019-02-14T01:51:13.286Z,99688.89
2019-02-14T01:53:46.317Z,99695.34
2019-02-14T01:56:19.803Z,99692.61
2019-02-14T01:58:53.276Z,99692.61
2019-02-14T02:01:26.899Z,99695.94
2019-02-14T02:04:00.027Z,99693.40
2019-02-14T02:06:31.800Z,99693.40
2019-02-14T02:09:08.182Z,99694.95
2019-02-14T02:11:41.471Z,99701.05
2019-02-14T02:14:14.707Z,99701.05
2019-02-14T02:16:48.083Z,99698.88
2019-02-14T02:19:19.803Z,99702.20
2019-02-14T02:21:53.126Z,99694.73
2019-02-14T02:24:26.295Z,99699.41
2019-02-14T02:26:59.674Z,99697.69
2019-02-14T02:29:32.951Z,99701.03
2019-02-14T02:32:07.083Z,99704.94
2019-02-14T02:34:39.023Z,99702.02
2019-02-14T02:37:12.138Z,99714.56
2019-02-14T02:39:45.337Z,99700.84
2019-02-14T02:42:18.636Z,99698.28
2019-02-14T02:44:51.953Z,99698.28
2019-02-14T02:47:23.790Z,99698.48
2019-02-14T02:49:57.119Z,99691.81
2019-02-14T02:52:30.361Z,99683.94
2019-02-14T02:55:03.671Z,99688.27
2019-02-14T02:57:36.963Z,99692.80
2019-02-14T03:00:12.602Z,99693.38
2019-02-14T03:02:45.759Z,99699.23
2019-02-14T03:05:18.956Z,99696.11
2019-02-14T03:07:52.286Z,99700.83
2019-02-14T03:10:25.312Z,99700.50
2019-02-14T03:12:58.694Z,99700.50
2019-02-14T03:15:31.946Z,99703.45
2019-02-14T03:18:03.876Z,99708.33
2019-02-14T03:20:36.977Z,99707.77
2019-02-14T03:23:08.824Z,99711.30
2019-02-14T03:25:42.168Z,99711.48
2019-02-14T03:28:15.351Z,99706.37
2019-02-14T03:30:48.689Z,99707.74
2019-02-14T03:33:21.988Z,99707.74
2019-02-14T03:35:53.802Z,99709.31
2019-02-14T03:38:27.291Z,99711.89
2019-02-14T03:41:00.663Z,99728.95
2019-02-14T03:43:33.904Z,99728.95
2019-02-14T03:46:07.279Z,99721.09
2019-02-14T03:48:40.324Z,99730.91
2019-02-14T03:51:13.667Z,99735.02
2019-02-14T03:53:46.950Z,99735.02
2019-02-14T03:56:20.264Z,99735.43
2019-02-14T03:58:53.481Z,99732.23
2019-02-14T04:01:26.905Z,99732.23
2019-02-14T04:04:00.109Z,99729.08
2019-02-14T04:06:33.288Z,99724.38
2019-02-14T04:09:08.562Z,99707.88
2019-02-14T04:11:41.958Z,99707.88
2019-02-14T04:14:13.678Z,99704.92
2019-02-14T04:16:46.939Z,99708.46
2019-02-14T04:19:20.127Z,99721.84
2019-02-14T04:21:53.360Z,99722.46
2019-02-14T04:24:26.679Z,99720.88
2019-02-14T04:26:59.961Z,99720.88
2019-02-14T04:29:33.124Z,99723.42
2019-02-14T04:32:06.286Z,99725.00
2019-02-14T04:34:39.684Z,99725.92
2019-02-14T04:37:12.950Z,99725.92
2019-02-14T04:39:46.204Z,99725.14
2019-02-14T04:42:19.681Z,99720.61
2019-02-14T04:44:52.949Z,99720.61
2019-02-14T04:47:26.286Z,99705.13
2019-02-14T04:49:59.612Z,99711.66
2019-02-14T04:52:32.958Z,99709.28
2019-02-14T04:55:06.296Z,99709.28
2019-02-14T04:57:39.680Z,99711.23
2019-02-14T05:00:13.326Z,99711.23
2019-02-14T05:02:46.704Z,99712.27
2019-02-14T05:05:19.957Z,99712.27
2019-02-14T05:07:53.289Z,99708.50
2019-02-14T05:10:26.342Z,99716.56
2019-02-14T05:12:59.724Z,99707.70
2019-02-14T05:15:32.952Z,99707.70
2019-02-14T05:18:06.284Z,99710.83
2019-02-14T05:20:39.566Z,99707.42
2019-02-14T05:23:12.920Z,99707.42
2019-02-14T05:25:46.151Z,99704.64
2019-02-14T05:28:19.279Z,99708.12
2019-02-14T05:30:54.296Z,99711.20
2019-02-14T05:33:27.668Z,99707.66
2019-02-14T05:36:00.948Z,99721.48
2019-02-14T05:38:34.288Z,99724.84
2019-02-14T05:41:07.341Z,99734.87
2019-02-14T05:43:40.729Z,99741.72
2019-02-14T05:46:14.289Z,99741.72
2019-02-14T05:48:47.726Z,99724.79
2019-02-14T05:51:21.292Z,99724.79
2019-02-14T05:53:54.624Z,99735.52
2019-02-14T05:56:28.025Z,99735.52
2019-02-14T05:59:00.095Z,99722.47
2019-02-14T06:01:32.430Z,99718.94
2019-02-14T06:04:05.762Z,99722.95
2019-02-14T06:06:39.403Z,99722.95
2019-02-14T06:09:12.646Z,99716.47
2019-02-14T06:11:45.957Z,99722.90
2019-02-14T06:14:19.302Z,99732.39
2019-02-14T06:16:52.756Z,99731.06
2019-02-14T06:19:26.288Z,99718.72
2019-02-14T06:21:59.679Z,99727.91
2019-02-14T06:24:33.276Z,99727.91
2019-02-14T06:27:07.073Z,99718.95
2019-02-14T06:29:39.289Z,99718.95
2019-02-14T06:32:12.537Z,99723.79
2019-02-14T06:34:45.953Z,99731.96
2019-02-14T06:37:19.311Z,99743.72
2019-02-14T06:39:52.954Z,99741.84
2019-02-14T06:42:26.311Z,99741.84
2019-02-14T06:44:59.682Z,99739.77
2019-02-14T06:47:33.164Z,99739.77
2019-02-14T06:50:07.269Z,99753.33
2019-02-14T06:52:40.708Z,99754.66
2019-02-14T06:55:14.261Z,99754.66
2019-02-14T06:57:47.613Z,99750.48
2019-02-14T07:00:21.283Z,99750.48
2019-02-14T07:02:54.675Z,99757.87
2019-02-14T07:05:28.132Z,99757.87
2019-02-14T07:08:01.334Z,99762.85
2019-02-14T07:10:34.719Z,99759.77
2019-02-14T07:13:08.314Z,99759.77
2019-02-14T07:15:41.727Z,99757.77
2019-02-14T07:18:15.284Z,99757.77
2019-02-14T07:20:48.753Z,99757.39
2019-02-14T07:23:22.286Z,99777.27
2019-02-14T07:25:55.727Z,99777.09
2019-02-14T07:28:29.279Z,99777.09
2019-02-14T07:31:02.632Z,99792.99
2019-02-14T07:33:36.110Z,99792.99
2019-02-14T07:36:09.630Z,99793.20
2019-02-14T07:38:43.105Z,99797.87
2019-02-14T07:41:16.488Z,99792.17
2019-02-14T07:43:49.732Z,99790.07
2019-02-14T07:46:23.291Z,99781.07
2019-02-14T07:48:56.683Z,99784.67
2019-02-14T07:51:30.283Z,99784.67
2019-02-14T07:54:03.654Z,99783.30
2019-02-14T07:56:37.272Z,99783.30
2019-02-14T07:59:10.703Z,99789.59
2019-02-14T08:01:44.272Z,99789.59
2019-02-14T08:04:17.648Z,99803.33
2019-02-14T08:06:51.319Z,99803.33
2019-02-14T08:09:24.776Z,99787.19
2019-02-14T08:11:58.283Z,99787.19
2019-02-14T08:14:31.648Z,99786.48
2019-02-14T08:17:04.948Z,99786.48
2019-02-14T08:19:37.270Z,99773.13
2019-02-14T08:22:10.587Z,99777.07
2019-02-14T08:24:44.268Z,99795.68
2019-02-14T08:27:17.876Z,99796.06
2019-02-14T08:29:51.800Z,99796.06
2019-02-14T08:32:25.273Z,99793.88
2019-02-14T08:34:58.668Z,99784.11
2019-02-14T08:37:32.278Z,99784.11
2019-02-14T08:40:06.594Z,99803.79
2019-02-14T08:42:40.104Z,99803.79
2019-02-14T08:45:14.276Z,99816.19
2019-02-14T08:47:47.634Z,99821.22
2019-02-14T08:50:21.273Z,99821.22
2019-02-14T08:52:54.665Z,99813.02
2019-02-14T08:55:28.270Z,99817.22
2019-02-14T08:58:01.666Z,99822.32
2019-02-14T09:00:35.313Z,99822.32
2019-02-14T09:03:08.954Z,99833.13
2019-02-14T09:05:42.430Z,99833.13
2019-02-14T09:08:15.876Z,99832.38
2019-02-14T09:10:47.998Z,99837.77
2019-02-14T09:13:20.277Z,99831.50
2019-02-14T09:15:53.657Z,99836.54
2019-02-14T09:18:27.278Z,99840.52
2019-02-14T09:21:01.728Z,99827.48
2019-02-14T09:23:35.286Z,99820.30
2019-02-14T09:26:08.641Z,99802.36
2019-02-14T09:28:42.284Z,99802.36
2019-02-14T09:31:15.658Z,99808.37
2019-02-14T09:33:49.280Z,99808.37
2019-02-14T09:36:22.682Z,99806.36
2019-02-14T09:38:56.271Z,99806.36
2019-02-14T09:41:29.654Z,99788.05
2019-02-14T09:44:03.120Z,99788.05
2019-02-14T09:46:36.642Z,99790.02
2019-02-14T09:49:10.104Z,99793.88
2019-02-14T09:51:43.700Z,99816.61
2019-02-14T09:54:17.125Z,99826.15
2019-02-14T09:56:50.513Z,99826.15
2019-02-14T09:59:24.105Z,99809.91
2019-02-14T10:01:57.657Z,99802.39
2019-02-14T10:04:31.264Z,99797.34
2019-02-14T10:07:04.680Z,99800.72
2019-02-14T10:09:38.288Z,99788.45
2019-02-14T10:12:11.958Z,99784.28
2019-02-14T10:14:44.272Z,99784.28
2019-02-14T10:17:22.299Z,99774.00
2019-02-14T10:19:52.743Z,99771.63
2019-02-14T10:22:25.979Z,99760.56
2019-02-14T10:24:58.364Z,99760.56
2019-02-14T10:27:31.860Z,99757.12
2019-02-14T10:30:05.718Z,99757.12
2019-02-14T10:32:40.269Z,99760.64
2019-02-14T10:35:13.660Z,99742.59
2019-02-14T10:37:47.274Z,99742.59
2019-02-14T10:40:20.937Z,99746.47
2019-02-14T10:42:54.741Z,99746.47
2019-02-14T10:45:28.276Z,99752.91
2019-02-14T10:48:01.626Z,99751.44
2019-02-14T10:50:35.097Z,99747.97
2019-02-14T10:53:08.661Z,99747.97
2019-02-14T10:55:42.306Z,99750.72
2019-02-14T10:58:15.756Z,99742.16
2019-02-14T11:00:49.251Z,99744.95
2019-02-14T11:03:22.762Z,99744.78
2019-02-14T11:05:56.288Z,99744.78
2019-02-14T11:09:20.673Z,99734.69
2019-02-14T11:11:54.259Z,99731.58
2019-02-14T11:14:29.410Z,99727.36
2019-02-14T11:17:02.872Z,99727.36
2019-02-14T11:19:35.036Z,99730.18
2019-02-14T11:22:06.861Z,99731.53
2019-02-14T11:24:40.274Z,99737.81
2019-02-14T11:27:13.669Z,99742.30
2019-02-14T11:29:47.265Z,99742.30
2019-02-14T11:32:20.776Z,99748.03
2019-02-14T11:34:54.284Z,99748.03
2019-02-14T11:37:27.702Z,99758.83
2019-02-14T11:40:01.274Z,99758.83
2019-02-14T11:42:34.769Z,99743.86
2019-02-14T11:45:10.331Z,99743.86
2019-02-14T11:47:45.126Z,99750.20
2019-02-14T11:50:18.722Z,99741.77
2019-02-14T11:52:52.255Z,99741.77
2019-02-14T11:55:25.686Z,99744.97
2019-02-14T11:58:00.288Z,99744.97
2019-02-14T12:00:33.705Z,99753.76
2019-02-14T12:03:07.120Z,99753.76
2019-02-14T12:05:40.735Z,99742.66
2019-02-14T12:08:15.114Z,99742.66
2019-02-14T12:10:48.702Z,99735.20
2019-02-14T12:13:22.281Z,99731.14
2019-02-14T12:15:55.641Z,99730.06
2019-02-14T12:18:29.267Z,99730.06
2019-02-14T12:21:02.653Z,99714.27
2019-02-14T12:23:36.296Z,99714.27
2019-02-14T12:26:09.768Z,99707.54
2019-02-14T12:28:43.269Z,99707.54
2019-02-14T12:31:18.582Z,99687.28
2019-02-14T12:33:51.054Z,99687.28
2019-02-14T12:36:23.287Z,99689.67
2019-02-14T12:38:56.642Z,99687.97
2019-02-14T12:41:30.144Z,99687.97
2019-02-14T12:44:03.315Z,99672.52
2019-02-14T12:46:37.950Z,99675.86
2019-02-14T12:49:11.320Z,99675.86
2019-02-14T12:51:44.674Z,99670.81
2019-02-14T12:54:18.131Z,99670.81
2019-02-14T12:56:51.682Z,99661.93
2019-02-14T12:59:24.952Z,99661.93
2019-02-14T13:01:57.107Z,99671.10
2019-02-14T13:04:30.338Z,99662.31
2019-02-14T13:07:03.645Z,99655.66
2019-02-14T13:09:37.259Z,99651.41
2019-02-14T13:12:10.641Z,99642.92
2019-02-14T13:14:44.280Z,99642.92
2019-02-14T13:17:18.272Z,99648.25
2019-02-14T13:19:52.496Z,99635.96
2019-02-14T13:22:27.275Z,99635.96
2019-02-14T13:25:00.705Z,99645.91
2019-02-14T13:27:34.308Z,99645.91
2019-02-14T13:30:11.686Z,99638.69
2019-02-14T13:32:45.344Z,99638.69
2019-02-14T13:35:19.275Z,99642.12
2019-02-14T13:37:52.708Z,99646.27
2019-02-14T13:40:27.322Z,99646.27
2019-02-14T13:43:00.686Z,99640.47
2019-02-14T13:45:34.277Z,99638.80
2019-02-14T13:48:07.943Z,99639.02
2019-02-14T13:50:41.355Z,99639.02
2019-02-14T13:53:14.870Z,99641.88
2019-02-14T13:55:46.989Z,99642.27
2019-02-14T13:58:19.120Z,99645.91
2019-02-14T14:00:52.880Z,99650.75
2019-02-14T14:03:25.287Z,99642.20
2019-02-14T14:05:59.280Z,99640.16
2019-02-14T14:08:32.729Z,99638.20
2019-02-14T14:11:06.282Z,99638.20
2019-02-14T14:13:39.601Z,99648.06
2019-02-14T14:16:13.310Z,99641.39
2019-02-14T14:18:46.695Z,99642.59
2019-02-14T14:21:20.282Z,99650.44
2019-02-14T14:23:53.670Z,99653.18
2019-02-14T14:26:27.290Z,99653.18
2019-02-14T14:29:01.476Z,99643.28
2019-02-14T14:31:34.785Z,99643.28
2019-02-14T14:34:08.323Z,99645.94
2019-02-14T14:36:41.695Z,99642.67
2019-02-14T14:39:15.326Z,99642.67
2019-02-14T14:41:48.892Z,99656.50
2019-02-14T14:44:33.677Z,99656.50
2019-02-14T14:47:17.501Z,99655.33
2019-02-14T14:49:50.867Z,99652.98
2019-02-14T14:52:24.320Z,99652.98
2019-02-14T14:54:57.886Z,99652.13
2019-02-14T14:57:30.056Z,99652.13
2019-02-14T15:00:02.062Z,99655.31
2019-02-14T15:02:35.654Z,99660.73
2019-02-14T15:05:09.282Z,99656.22
2019-02-14T15:07:42.753Z,99652.29
2019-02-14T15:10:16.596Z,99652.29
2019-02-14T15:12:50.265Z,99646.98
2019-02-14T15:15:23.676Z,99639.44
2019-02-14T15:17:57.619Z,99639.44
2019-02-14T15:20:30.867Z,99642.73
2019-02-14T15:23:04.342Z,99642.73
2019-02-14T15:25:38.082Z,99653.55
2019-02-14T15:28:11.329Z,99651.58
2019-02-14T15:30:44.889Z,99650.05
2019-02-14T15:33:18.341Z,99655.26
2019-02-14T15:35:51.700Z,99647.20
2019-02-14T15:38:26.381Z,99647.20
2019-02-14T15:40:59.952Z,99645.14
2019-02-14T15:43:32.023Z,99654.39
2019-02-14T15:46:04.267Z,99646.48
2019-02-14T15:48:37.454Z,99648.50
2019-02-14T15:51:11.275Z,99649.91
2019-02-14T15:53:46.231Z,99640.28
2019-02-14T15:56:20.088Z,99640.28
2019-02-14T15:58:55.331Z,99648.84
2019-02-14T16:01:28.948Z,99643.66
2019-02-14T16:04:02.505Z,99641.03
2019-02-14T16:06:36.285Z,99641.03
2019-02-14T16:09:09.900Z,99636.22
2019-02-14T16:11:42.276Z,99636.22
2019-02-14T16:14:18.160Z,99631.27
2019-02-14T16:16:51.601Z,99638.55
2019-02-14T16:19:25.289Z,99638.55
2019-02-14T16:21:58.772Z,99625.56
2019-02-14T16:24:32.290Z,99625.56
2019-02-14T16:27:06.016Z,99624.90
2019-02-14T16:29:38.276Z,99624.90
2019-02-14T16:32:11.695Z,99628.52
2019-02-14T16:34:45.306Z,99626.87
2019-02-14T16:37:18.724Z,99623.38
2019-02-14T16:39:56.151Z,99623.38
2019-02-14T16:42:30.696Z,99635.24
2019-02-14T16:45:03.952Z,99633.08
2019-02-14T16:47:36.043Z,99630.76
2019-02-14T16:50:09.879Z,99631.56
2019-02-14T16:52:43.268Z,99636.50
2019-02-14T16:55:16.644Z,99638.07
2019-02-14T16:57:49.950Z,99638.07
2019-02-14T17:00:23.255Z,99638.11
2019-02-14T17:02:56.884Z,99637.72
2019-02-14T17:05:33.693Z,99637.72
2019-02-14T17:08:07.119Z,99641.11
2019-02-14T17:10:40.302Z,99640.78
2019-02-14T17:13:13.775Z,99634.80
2019-02-14T17:15:47.061Z,99638.62
2019-02-14T17:18:18.864Z,99638.62
2019-02-14T17:20:51.935Z,99639.72
2019-02-14T17:23:23.864Z,99643.81
2019-02-14T17:25:57.121Z,99654.08
2019-02-14T17:28:30.332Z,99651.58
2019-02-14T17:31:03.756Z,99646.89
2019-02-14T17:33:37.228Z,99646.89
2019-02-14T17:36:10.375Z,99654.36
2019-02-14T17:38:43.866Z,99652.25
2019-02-14T17:41:17.274Z,99647.62
2019-02-14T17:43:50.955Z,99656.50
2019-02-14T17:46:22.870Z,99656.50
2019-02-14T17:48:56.270Z,99664.47
2019-02-14T17:51:29.747Z,99666.83
2019-02-14T17:54:03.298Z,99666.83
2019-02-14T17:56:36.743Z,99668.61
2019-02-14T17:59:09.952Z,99672.23
2019-02-14T18:01:42.864Z,99671.30
2019-02-14T18:04:16.286Z,99672.82
2019-02-14T18:06:49.757Z,99663.80
2019-02-14T18:09:23.268Z,99666.89
2019-02-14T18:11:57.269Z,99666.89
2019-02-14T18:14:30.676Z,99666.45
2019-02-14T18:17:04.108Z,99666.45
2019-02-14T18:19:38.276Z,99667.69
2019-02-14T18:22:12.666Z,99665.37
2019-02-14T18:24:45.947Z,99665.37
2019-02-14T18:27:17.876Z,99663.34
2019-02-14T18:29:51.283Z,99660.59
2019-02-14T18:32:24.785Z,99667.54
2019-02-14T18:35:00.952Z,99667.54
2019-02-14T18:37:34.676Z,99671.29
2019-02-14T18:40:10.272Z,99670.95
2019-02-14T18:42:44.118Z,99674.31
2019-02-14T18:45:17.941Z,99674.31
2019-02-14T18:47:49.683Z,99670.03
2019-02-14T18:50:22.981Z,99663.52
2019-02-14T18:52:56.267Z,99667.46
2019-02-14T18:55:29.679Z,99664.64
2019-02-14T18:58:03.052Z,99665.47
2019-02-14T19:00:35.161Z,99665.47
2019-02-14T19:03:08.264Z,99660.95
2019-02-14T19:05:41.347Z,99670.88
2019-02-14T19:08:14.670Z,99670.88
2019-02-14T19:10:47.938Z,99673.50
2019-02-14T19:13:20.104Z,99684.55
2019-02-14T19:15:51.874Z,99675.70
2019-02-14T19:18:25.283Z,99676.69
2019-02-14T19:20:58.677Z,99682.59
2019-02-14T19:23:32.633Z,99682.59
2019-02-14T19:26:06.275Z,99682.78
2019-02-14T19:28:39.693Z,99689.70
2019-02-14T19:31:13.265Z,99690.72
2019-02-14T19:33:46.675Z,99671.89
2019-02-14T19:36:20.102Z,99671.89
2019-02-14T19:38:53.626Z,99685.66
2019-02-14T19:41:27.261Z,99685.69
2019-02-14T19:44:00.638Z,99689.28
2019-02-14T19:46:34.269Z,99689.28
2019-02-14T19:49:07.630Z,99681.66
2019-02-14T19:51:40.939Z,99681.66
2019-02-14T19:54:12.987Z,99676.73
2019-02-14T19:56:46.335Z,99681.86
2019-02-14T19:59:19.681Z,99678.73
2019-02-14T20:01:53.152Z,99675.79
2019-02-14T20:04:25.287Z,99677.39
2019-02-14T20:06:59.685Z,99679.97
2019-02-14T20:09:33.088Z,99679.97
2019-02-14T20:12:05.344Z,99677.05
2019-02-14T20:14:38.658Z,99672.53
2019-02-14T20:17:12.268Z,99672.53
2019-02-14T20:19:45.716Z,99674.29
2019-02-14T20:22:19.272Z,99674.29
2019-02-14T20:24:52.654Z,99676.47
2019-02-14T20:28:09.786Z,99674.11
2019-02-14T20:30:43.163Z,99675.91
2019-02-14T20:33:16.343Z,99675.91
2019-02-14T20:35:50.666Z,99669.22
2019-02-14T20:38:24.266Z,99671.98
2019-02-14T20:40:57.667Z,99671.59
2019-02-14T20:43:31.091Z,99671.59
2019-02-14T20:46:04.781Z,99662.16
2019-02-14T20:48:38.269Z,99662.16
2019-02-14T20:51:11.666Z,99658.44
2019-02-14T20:53:45.087Z,99658.44
2019-02-14T20:56:18.362Z,99657.45
2019-02-14T20:58:51.694Z,99653.10
2019-02-14T21:01:25.108Z,99650.55
2019-02-14T21:03:57.613Z,99655.25
2019-02-14T21:06:31.588Z,99646.98
2019-02-14T21:09:05.673Z,99650.34
2019-02-14T21:11:40.278Z,99645.64
2019-02-14T21:14:13.742Z,99641.89
2019-02-14T21:16:47.291Z,99638.16
2019-02-14T21:19:20.707Z,99642.27
2019-02-14T21:21:54.278Z,99642.27
2019-02-14T21:24:27.723Z,99642.64
2019-02-14T21:27:58.661Z,99639.84
2019-02-14T21:30:35.497Z,99647.30
2019-02-14T21:33:07.281Z,99639.45
2019-02-14T21:35:41.763Z,99647.48
2019-02-14T21:38:15.273Z,99649.82
2019-02-14T21:40:48.956Z,99649.69
2019-02-14T21:43:21.053Z,99648.92
2019-02-14T21:46:11.729Z,99646.55
2019-02-14T21:48:45.120Z,99650.89
2019-02-14T21:51:18.652Z,99644.20
2019-02-14T21:53:52.282Z,99650.08
2019-02-14T21:56:52.126Z,99650.08
2019-02-14T21:59:27.408Z,99653.61
2019-02-14T22:02:05.691Z,99653.45
2019-02-14T22:04:35.947Z,99645.73
2019-02-14T22:07:07.834Z,99650.66
2019-02-14T22:09:41.275Z,99643.95
2019-02-14T22:12:14.773Z,99644.72
2019-02-14T22:14:48.303Z,99634.07
2019-02-14T22:17:22.768Z,99641.52
2019-02-14T22:19:56.316Z,99638.81
2019-02-14T22:22:29.692Z,99643.44
2019-02-14T22:25:03.240Z,99643.44
2019-02-14T22:27:36.750Z,99638.78
2019-02-14T22:30:14.273Z,99638.78
2019-02-14T22:32:48.102Z,99635.27
2019-02-14T22:35:21.630Z,99634.50
2019-02-14T22:37:56.281Z,99634.50
2019-02-14T22:40:30.340Z,99634.28
2019-02-14T22:43:03.741Z,99634.28
2019-02-14T22:45:37.278Z,99638.80
2019-02-14T22:48:10.758Z,99644.69
2019-02-14T22:50:44.280Z,99644.69
2019-02-14T22:53:17.694Z,99641.95
2019-02-14T22:55:51.927Z,99641.95
2019-02-14T22:58:25.983Z,99640.77
2019-02-14T23:01:01.750Z,99643.33
2019-02-14T23:03:35.768Z,99645.86
2019-02-14T23:06:09.293Z,99650.14
2019-02-14T23:08:42.664Z,99637.97
2019-02-14T23:11:16.277Z,99637.97
2019-02-14T23:13:49.717Z,99646.98
2019-02-14T23:16:23.284Z,99646.98
2019-02-14T23:18:56.629Z,99653.84
2019-02-14T23:21:30.274Z,99653.84
2019-02-14T23:24:03.671Z,99654.79
2019-02-14T23:26:37.079Z,99654.79
2019-02-14T23:29:10.640Z,99663.02
2019-02-14T23:31:45.274Z,99667.53
2019-02-14T23:34:18.630Z,99664.72
2019-02-14T23:36:52.284Z,99664.72
2019-02-14T23:39:25.640Z,99669.42
2019-02-14T23:41:59.292Z,99669.42
2019-02-14T23:44:32.652Z,99681.91
2019-02-14T23:47:06.114Z,99679.95
2019-02-14T23:49:38.298Z,99679.95
2019-02-14T23:52:11.684Z,99681.11
2019-02-14T23:54:45.288Z,99681.06
2019-02-14T23:57:18.659Z,99680.44
2019-02-14T23:59:52.287Z,99680.44
